sensor_id;sensor_type;location;lat;lon;timestamp;P1;durP1;ratioP1;P2;durP2;ratioP2
66342;SDS011;53144;51.524;5.080;2023-05-10T00:01:00;43.53;;;24.20;;
66342;SDS011;53144;51.524;5.080;2023-05-10T00:03:26;46.08;;;25.15;;
66342;SDS011;53144;51.524;5.080;2023-05-10T00:05:51;43.88;;;22.90;;
66342;SDS011;53144;51.524;5.080;2023-05-10T00:08:16;46.67;;;23.50;;
66342;SDS011;53144;51.524;5.080;2023-05-10T00:10:42;50.55;;;24.98;;
66342;SDS011;53144;51.524;5.080;2023-05-10T00:13:07;43.95;;;23.73;;
66342;SDS011;53144;51.524;5.080;2023-05-10T00:17:59;48.57;;;24.40;;
66342;SDS011;53144;51.524;5.080;2023-05-10T00:20:25;53.97;;;25.88;;
66342;SDS011;53144;51.524;5.080;2023-05-10T00:25:15;51.40;;;25.10;;
66342;SDS011;53144;51.524;5.080;2023-05-10T00:27:41;55.13;;;25.10;;
66342;SDS011;53144;51.524;5.080;2023-05-10T00:30:06;57.70;;;25.77;;
66342;SDS011;53144;51.524;5.080;2023-05-10T00:32:32;48.28;;;25.15;;
66342;SDS011;53144;51.524;5.080;2023-05-10T00:34:58;48.83;;;24.42;;
66342;SDS011;53144;51.524;5.080;2023-05-10T00:39:48;46.28;;;24.20;;
66342;SDS011;53144;51.524;5.080;2023-05-10T00:44:39;45.75;;;23.52;;
66342;SDS011;53144;51.524;5.080;2023-05-10T00:47:04;41.65;;;23.02;;
66342;SDS011;53144;51.524;5.080;2023-05-10T00:49:30;45.47;;;25.00;;
66342;SDS011;53144;51.524;5.080;2023-05-10T00:51:56;59.85;;;29.02;;
66342;SDS011;53144;51.524;5.080;2023-05-10T00:56:47;48.13;;;25.60;;
66342;SDS011;53144;51.524;5.080;2023-05-10T00:59:17;58.65;;;27.38;;
66342;SDS011;53144;51.524;5.080;2023-05-10T01:01:46;58.13;;;27.85;;
66342;SDS011;53144;51.524;5.080;2023-05-10T01:04:12;68.07;;;28.58;;
66342;SDS011;53144;51.524;5.080;2023-05-10T01:06:39;61.28;;;29.08;;
66342;SDS011;53144;51.524;5.080;2023-05-10T01:09:05;70.45;;;28.77;;
66342;SDS011;53144;51.524;5.080;2023-05-10T01:11:31;62.47;;;29.85;;
66342;SDS011;53144;51.524;5.080;2023-05-10T01:13:58;67.70;;;30.77;;
66342;SDS011;53144;51.524;5.080;2023-05-10T01:18:49;68.90;;;28.80;;
66342;SDS011;53144;51.524;5.080;2023-05-10T01:29:20;77.85;;;32.58;;
66342;SDS011;53144;51.524;5.080;2023-05-10T01:35:02;81.50;;;33.63;;
66342;SDS011;53144;51.524;5.080;2023-05-10T01:37:50;74.43;;;33.40;;
66342;SDS011;53144;51.524;5.080;2023-05-10T01:40:26;93.10;;;36.83;;
66342;SDS011;53144;51.524;5.080;2023-05-10T01:43:08;88.40;;;37.10;;
66342;SDS011;53144;51.524;5.080;2023-05-10T01:45:47;81.60;;;36.20;;
66342;SDS011;53144;51.524;5.080;2023-05-10T01:48:22;103.90;;;41.33;;
66342;SDS011;53144;51.524;5.080;2023-05-10T01:50:49;101.30;;;41.20;;
66342;SDS011;53144;51.524;5.080;2023-05-10T01:53:17;103.47;;;43.63;;
66342;SDS011;53144;51.524;5.080;2023-05-10T01:55:46;113.22;;;43.65;;
66342;SDS011;53144;51.524;5.080;2023-05-10T01:58:14;114.47;;;44.97;;
66342;SDS011;53144;51.524;5.080;2023-05-10T02:00:44;124.35;;;46.42;;
66342;SDS011;53144;51.524;5.080;2023-05-10T02:03:12;116.90;;;47.72;;
66342;SDS011;53144;51.524;5.080;2023-05-10T02:05:39;122.85;;;48.45;;
66342;SDS011;53144;51.524;5.080;2023-05-10T02:08:09;120.80;;;49.00;;
66342;SDS011;53144;51.524;5.080;2023-05-10T02:13:01;109.82;;;45.30;;
66342;SDS011;53144;51.524;5.080;2023-05-10T02:15:28;112.93;;;48.03;;
66342;SDS011;53144;51.524;5.080;2023-05-10T02:17:55;112.43;;;47.75;;
66342;SDS011;53144;51.524;5.080;2023-05-10T02:20:22;124.65;;;51.40;;
66342;SDS011;53144;51.524;5.080;2023-05-10T02:22:50;117.07;;;48.45;;
66342;SDS011;53144;51.524;5.080;2023-05-10T02:25:18;112.00;;;49.10;;
66342;SDS011;53144;51.524;5.080;2023-05-10T02:27:45;109.35;;;48.30;;
66342;SDS011;53144;51.524;5.080;2023-05-10T02:30:12;116.78;;;49.78;;
66342;SDS011;53144;51.524;5.080;2023-05-10T02:32:38;106.18;;;47.55;;
66342;SDS011;53144;51.524;5.080;2023-05-10T02:35:05;101.45;;;46.35;;
66342;SDS011;53144;51.524;5.080;2023-05-10T02:37:32;115.25;;;47.95;;
66342;SDS011;53144;51.524;5.080;2023-05-10T02:39:59;101.50;;;47.90;;
66342;SDS011;53144;51.524;5.080;2023-05-10T02:42:26;101.88;;;47.45;;
66342;SDS011;53144;51.524;5.080;2023-05-10T02:44:53;112.65;;;50.28;;
66342;SDS011;53144;51.524;5.080;2023-05-10T02:47:24;104.40;;;49.67;;
66342;SDS011;53144;51.524;5.080;2023-05-10T02:52:16;105.07;;;48.05;;
66342;SDS011;53144;51.524;5.080;2023-05-10T02:54:49;124.68;;;50.95;;
66342;SDS011;53144;51.524;5.080;2023-05-10T02:57:17;114.70;;;50.28;;
66342;SDS011;53144;51.524;5.080;2023-05-10T02:59:50;108.10;;;50.42;;
66342;SDS011;53144;51.524;5.080;2023-05-10T03:04:41;106.88;;;46.47;;
66342;SDS011;53144;51.524;5.080;2023-05-10T03:07:06;99.30;;;45.25;;
66342;SDS011;53144;51.524;5.080;2023-05-10T03:09:32;97.82;;;44.90;;
66342;SDS011;53144;51.524;5.080;2023-05-10T03:14:45;81.35;;;40.22;;
66342;SDS011;53144;51.524;5.080;2023-05-10T03:17:56;81.82;;;40.00;;
66342;SDS011;53144;51.524;5.080;2023-05-10T03:20:22;76.00;;;38.67;;
66342;SDS011;53144;51.524;5.080;2023-05-10T03:22:53;74.55;;;39.38;;
66342;SDS011;53144;51.524;5.080;2023-05-10T03:25:25;78.53;;;39.80;;
66342;SDS011;53144;51.524;5.080;2023-05-10T03:27:51;73.32;;;38.50;;
66342;SDS011;53144;51.524;5.080;2023-05-10T03:30:17;83.63;;;40.45;;
66342;SDS011;53144;51.524;5.080;2023-05-10T03:32:44;79.10;;;40.03;;
66342;SDS011;53144;51.524;5.080;2023-05-10T03:37:37;86.15;;;38.63;;
66342;SDS011;53144;51.524;5.080;2023-05-10T03:40:02;86.80;;;39.45;;
66342;SDS011;53144;51.524;5.080;2023-05-10T03:42:28;80.20;;;38.15;;
66342;SDS011;53144;51.524;5.080;2023-05-10T03:47:19;63.30;;;33.15;;
66342;SDS011;53144;51.524;5.080;2023-05-10T03:49:44;60.42;;;31.38;;
66342;SDS011;53144;51.524;5.080;2023-05-10T03:54:35;55.10;;;28.98;;
66342;SDS011;53144;51.524;5.080;2023-05-10T03:59:27;47.45;;;26.48;;
66342;SDS011;53144;51.524;5.080;2023-05-10T04:04:18;45.53;;;24.08;;
66342;SDS011;53144;51.524;5.080;2023-05-10T04:06:45;44.30;;;24.73;;
66342;SDS011;53144;51.524;5.080;2023-05-10T04:11:36;42.63;;;24.45;;
66342;SDS011;53144;51.524;5.080;2023-05-10T04:14:01;43.22;;;23.90;;
66342;SDS011;53144;51.524;5.080;2023-05-10T04:18:52;44.72;;;24.38;;
66342;SDS011;53144;51.524;5.080;2023-05-10T04:23:43;35.33;;;22.02;;
66342;SDS011;53144;51.524;5.080;2023-05-10T04:28:34;37.92;;;21.83;;
66342;SDS011;53144;51.524;5.080;2023-05-10T04:31:06;43.25;;;22.45;;
66342;SDS011;53144;51.524;5.080;2023-05-10T04:33:33;40.13;;;23.08;;
66342;SDS011;53144;51.524;5.080;2023-05-10T04:38:24;43.33;;;22.50;;
66342;SDS011;53144;51.524;5.080;2023-05-10T04:43:15;40.15;;;22.50;;
66342;SDS011;53144;51.524;5.080;2023-05-10T04:48:05;42.13;;;22.42;;
66342;SDS011;53144;51.524;5.080;2023-05-10T04:52:56;38.60;;;22.42;;
66342;SDS011;53144;51.524;5.080;2023-05-10T04:57:47;41.28;;;21.40;;
66342;SDS011;53144;51.524;5.080;2023-05-10T05:00:12;35.25;;;22.38;;
66342;SDS011;53144;51.524;5.080;2023-05-10T05:02:41;42.85;;;24.48;;
66342;SDS011;53144;51.524;5.080;2023-05-10T05:05:07;41.15;;;23.52;;
66342;SDS011;53144;51.524;5.080;2023-05-10T05:09:58;39.88;;;23.02;;
66342;SDS011;53144;51.524;5.080;2023-05-10T05:12:23;40.95;;;24.08;;
66342;SDS011;53144;51.524;5.080;2023-05-10T05:17:14;40.03;;;23.92;;
66342;SDS011;53144;51.524;5.080;2023-05-10T05:22:06;41.97;;;24.25;;
66342;SDS011;53144;51.524;5.080;2023-05-10T05:24:36;45.63;;;24.52;;
66342;SDS011;53144;51.524;5.080;2023-05-10T05:27:03;41.90;;;25.20;;
66342;SDS011;53144;51.524;5.080;2023-05-10T05:31:53;37.90;;;23.15;;
66342;SDS011;53144;51.524;5.080;2023-05-10T05:34:19;42.15;;;24.33;;
66342;SDS011;53144;51.524;5.080;2023-05-10T05:36:45;43.70;;;24.55;;
66342;SDS011;53144;51.524;5.080;2023-05-10T05:41:36;43.42;;;24.45;;
66342;SDS011;53144;51.524;5.080;2023-05-10T05:46:26;40.13;;;23.85;;
66342;SDS011;53144;51.524;5.080;2023-05-10T05:48:52;41.08;;;24.52;;
66342;SDS011;53144;51.524;5.080;2023-05-10T05:51:17;44.92;;;25.60;;
66342;SDS011;53144;51.524;5.080;2023-05-10T05:53:42;39.40;;;24.10;;
66342;SDS011;53144;51.524;5.080;2023-05-10T05:56:08;49.67;;;26.00;;
66342;SDS011;53144;51.524;5.080;2023-05-10T05:58:34;39.60;;;26.75;;
66342;SDS011;53144;51.524;5.080;2023-05-10T06:03:26;49.38;;;26.20;;
66342;SDS011;53144;51.524;5.080;2023-05-10T06:08:16;42.10;;;24.85;;
66342;SDS011;53144;51.524;5.080;2023-05-10T06:10:42;49.72;;;27.77;;
66342;SDS011;53144;51.524;5.080;2023-05-10T06:13:07;49.05;;;27.92;;
66342;SDS011;53144;51.524;5.080;2023-05-10T06:15:33;45.38;;;27.60;;
66342;SDS011;53144;51.524;5.080;2023-05-10T06:17:58;41.47;;;25.27;;
66342;SDS011;53144;51.524;5.080;2023-05-10T06:22:49;38.92;;;22.85;;
66342;SDS011;53144;51.524;5.080;2023-05-10T06:25:14;39.40;;;23.77;;
66342;SDS011;53144;51.524;5.080;2023-05-10T06:27:42;34.85;;;21.02;;
66342;SDS011;53144;51.524;5.080;2023-05-10T06:32:34;40.35;;;22.02;;
66342;SDS011;53144;51.524;5.080;2023-05-10T06:34:59;33.50;;;20.52;;
66342;SDS011;53144;51.524;5.080;2023-05-10T06:37:24;34.47;;;20.10;;
66342;SDS011;53144;51.524;5.080;2023-05-10T06:39:50;28.80;;;17.17;;
66342;SDS011;53144;51.524;5.080;2023-05-10T06:42:15;27.05;;;15.65;;
66342;SDS011;53144;51.524;5.080;2023-05-10T06:44:40;26.20;;;15.80;;
66342;SDS011;53144;51.524;5.080;2023-05-10T06:47:06;28.40;;;15.20;;
66342;SDS011;53144;51.524;5.080;2023-05-10T06:49:32;22.75;;;13.55;;
66342;SDS011;53144;51.524;5.080;2023-05-10T06:51:57;20.40;;;13.10;;
66342;SDS011;53144;51.524;5.080;2023-05-10T06:54:25;21.42;;;12.55;;
66342;SDS011;53144;51.524;5.080;2023-05-10T06:59:15;20.67;;;10.48;;
66342;SDS011;53144;51.524;5.080;2023-05-10T07:01:41;17.02;;;10.20;;
66342;SDS011;53144;51.524;5.080;2023-05-10T07:06:32;17.33;;;10.50;;
66342;SDS011;53144;51.524;5.080;2023-05-10T07:08:58;16.77;;;9.70;;
66342;SDS011;53144;51.524;5.080;2023-05-10T07:13:49;17.20;;;9.35;;
66342;SDS011;53144;51.524;5.080;2023-05-10T07:16:15;14.30;;;8.13;;
66342;SDS011;53144;51.524;5.080;2023-05-10T07:21:06;12.32;;;8.00;;
66342;SDS011;53144;51.524;5.080;2023-05-10T07:23:31;12.25;;;8.30;;
66342;SDS011;53144;51.524;5.080;2023-05-10T07:25:56;12.85;;;7.53;;
66342;SDS011;53144;51.524;5.080;2023-05-10T07:28:22;12.20;;;7.00;;
66342;SDS011;53144;51.524;5.080;2023-05-10T07:30:53;10.98;;;7.50;;
66342;SDS011;53144;51.524;5.080;2023-05-10T07:35:44;10.88;;;6.65;;
66342;SDS011;53144;51.524;5.080;2023-05-10T07:38:09;11.27;;;5.95;;
66342;SDS011;53144;51.524;5.080;2023-05-10T07:40:36;12.00;;;6.38;;
66342;SDS011;53144;51.524;5.080;2023-05-10T07:43:02;10.77;;;5.82;;
66342;SDS011;53144;51.524;5.080;2023-05-10T07:47:53;8.88;;;5.78;;
66342;SDS011;53144;51.524;5.080;2023-05-10T07:50:18;8.95;;;5.30;;
66342;SDS011;53144;51.524;5.080;2023-05-10T07:52:44;10.85;;;5.57;;
66342;SDS011;53144;51.524;5.080;2023-05-10T07:55:09;9.65;;;5.50;;
66342;SDS011;53144;51.524;5.080;2023-05-10T07:57:35;9.60;;;5.57;;
66342;SDS011;53144;51.524;5.080;2023-05-10T08:00:01;8.50;;;5.30;;
66342;SDS011;53144;51.524;5.080;2023-05-10T08:02:30;9.18;;;6.47;;
66342;SDS011;53144;51.524;5.080;2023-05-10T08:04:55;9.60;;;6.20;;
66342;SDS011;53144;51.524;5.080;2023-05-10T08:07:21;10.88;;;6.00;;
66342;SDS011;53144;51.524;5.080;2023-05-10T08:09:46;10.10;;;6.38;;
66342;SDS011;53144;51.524;5.080;2023-05-10T08:12:15;9.27;;;6.13;;
66342;SDS011;53144;51.524;5.080;2023-05-10T08:14:40;10.43;;;6.35;;
66342;SDS011;53144;51.524;5.080;2023-05-10T08:17:06;10.38;;;5.30;;
66342;SDS011;53144;51.524;5.080;2023-05-10T08:19:31;7.90;;;5.75;;
66342;SDS011;53144;51.524;5.080;2023-05-10T08:21:57;6.45;;;5.15;;
66342;SDS011;53144;51.524;5.080;2023-05-10T08:24:22;10.02;;;5.80;;
66342;SDS011;53144;51.524;5.080;2023-05-10T08:26:48;10.63;;;5.57;;
66342;SDS011;53144;51.524;5.080;2023-05-10T08:29:13;8.20;;;4.85;;
66342;SDS011;53144;51.524;5.080;2023-05-10T08:31:39;7.85;;;4.18;;
66342;SDS011;53144;51.524;5.080;2023-05-10T08:34:05;3.88;;;3.00;;
66342;SDS011;53144;51.524;5.080;2023-05-10T08:36:37;6.78;;;3.50;;
66342;SDS011;53144;51.524;5.080;2023-05-10T08:39:05;4.80;;;3.33;;
66342;SDS011;53144;51.524;5.080;2023-05-10T08:41:31;4.65;;;3.22;;
66342;SDS011;53144;51.524;5.080;2023-05-10T08:43:58;5.60;;;2.83;;
66342;SDS011;53144;51.524;5.080;2023-05-10T08:46:28;3.92;;;2.80;;
66342;SDS011;53144;51.524;5.080;2023-05-10T08:48:55;4.97;;;2.70;;
66342;SDS011;53144;51.524;5.080;2023-05-10T08:51:24;5.25;;;2.90;;
66342;SDS011;53144;51.524;5.080;2023-05-10T08:53:51;6.22;;;3.00;;
66342;SDS011;53144;51.524;5.080;2023-05-10T08:56:17;7.28;;;2.90;;
66342;SDS011;53144;51.524;5.080;2023-05-10T08:58:42;7.25;;;2.85;;
66342;SDS011;53144;51.524;5.080;2023-05-10T09:01:08;7.05;;;3.10;;
66342;SDS011;53144;51.524;5.080;2023-05-10T09:03:35;5.88;;;2.97;;
66342;SDS011;53144;51.524;5.080;2023-05-10T09:06:02;3.95;;;3.00;;
66342;SDS011;53144;51.524;5.080;2023-05-10T09:08:27;6.97;;;4.13;;
66342;SDS011;53144;51.524;5.080;2023-05-10T09:10:54;6.38;;;4.30;;
66342;SDS011;53144;51.524;5.080;2023-05-10T09:13:20;7.18;;;4.82;;
66342;SDS011;53144;51.524;5.080;2023-05-10T09:15:47;7.35;;;4.95;;
66342;SDS011;53144;51.524;5.080;2023-05-10T09:18:13;6.00;;;4.72;;
66342;SDS011;53144;51.524;5.080;2023-05-10T09:20:38;6.00;;;4.70;;
66342;SDS011;53144;51.524;5.080;2023-05-10T09:23:05;7.80;;;5.03;;
66342;SDS011;53144;51.524;5.080;2023-05-10T09:25:30;6.20;;;4.18;;
66342;SDS011;53144;51.524;5.080;2023-05-10T09:27:58;6.90;;;4.22;;
66342;SDS011;53144;51.524;5.080;2023-05-10T09:32:50;7.50;;;4.47;;
66342;SDS011;53144;51.524;5.080;2023-05-10T09:35:17;6.97;;;4.50;;
66342;SDS011;53144;51.524;5.080;2023-05-10T09:37:44;7.15;;;5.10;;
66342;SDS011;53144;51.524;5.080;2023-05-10T09:40:16;6.57;;;5.50;;
66342;SDS011;53144;51.524;5.080;2023-05-10T09:42:50;8.02;;;5.78;;
66342;SDS011;53144;51.524;5.080;2023-05-10T09:45:18;9.90;;;6.35;;
66342;SDS011;53144;51.524;5.080;2023-05-10T09:47:43;7.72;;;6.03;;
66342;SDS011;53144;51.524;5.080;2023-05-10T09:50:10;7.22;;;5.63;;
66342;SDS011;53144;51.524;5.080;2023-05-10T09:52:46;9.35;;;6.10;;
66342;SDS011;53144;51.524;5.080;2023-05-10T09:55:16;7.88;;;6.18;;
66342;SDS011;53144;51.524;5.080;2023-05-10T09:57:43;9.00;;;5.75;;
66342;SDS011;53144;51.524;5.080;2023-05-10T10:00:08;6.60;;;5.70;;
66342;SDS011;53144;51.524;5.080;2023-05-10T10:02:38;5.70;;;5.20;;
66342;SDS011;53144;51.524;5.080;2023-05-10T10:05:05;6.47;;;4.30;;
66342;SDS011;53144;51.524;5.080;2023-05-10T10:07:31;10.52;;;4.68;;
66342;SDS011;53144;51.524;5.080;2023-05-10T10:09:58;6.32;;;4.35;;
66342;SDS011;53144;51.524;5.080;2023-05-10T10:12:23;10.25;;;5.10;;
66342;SDS011;53144;51.524;5.080;2023-05-10T10:14:50;6.97;;;5.07;;
66342;SDS011;53144;51.524;5.080;2023-05-10T10:17:16;6.65;;;5.13;;
66342;SDS011;53144;51.524;5.080;2023-05-10T10:19:42;8.13;;;5.18;;
66342;SDS011;53144;51.524;5.080;2023-05-10T10:22:08;9.23;;;5.18;;
66342;SDS011;53144;51.524;5.080;2023-05-10T10:24:36;7.80;;;4.70;;
66342;SDS011;53144;51.524;5.080;2023-05-10T10:30:13;10.88;;;5.40;;
66342;SDS011;53144;51.524;5.080;2023-05-10T10:35:47;7.18;;;5.60;;
66342;SDS011;53144;51.524;5.080;2023-05-10T10:38:13;7.70;;;6.38;;
66342;SDS011;53144;51.524;5.080;2023-05-10T10:40:38;7.78;;;6.20;;
66342;SDS011;53144;51.524;5.080;2023-05-10T10:43:23;6.60;;;5.90;;
66342;SDS011;53144;51.524;5.080;2023-05-10T10:46:09;9.10;;;6.25;;
66342;SDS011;53144;51.524;5.080;2023-05-10T10:48:39;7.63;;;5.70;;
66342;SDS011;53144;51.524;5.080;2023-05-10T10:51:04;8.15;;;5.85;;
66342;SDS011;53144;51.524;5.080;2023-05-10T10:53:30;7.30;;;4.85;;
66342;SDS011;53144;51.524;5.080;2023-05-10T10:56:11;5.35;;;4.85;;
66342;SDS011;53144;51.524;5.080;2023-05-10T10:58:40;5.78;;;4.38;;
66342;SDS011;53144;51.524;5.080;2023-05-10T11:01:19;4.32;;;3.90;;
66342;SDS011;53144;51.524;5.080;2023-05-10T11:06:28;4.10;;;3.60;;
66342;SDS011;53144;51.524;5.080;2023-05-10T11:08:56;5.25;;;3.45;;
66342;SDS011;53144;51.524;5.080;2023-05-10T11:11:22;5.82;;;4.15;;
66342;SDS011;53144;51.524;5.080;2023-05-10T11:13:47;7.68;;;3.30;;
66342;SDS011;53144;51.524;5.080;2023-05-10T11:16:19;6.82;;;4.10;;
66342;SDS011;53144;51.524;5.080;2023-05-10T11:18:52;4.03;;;2.90;;
66342;SDS011;53144;51.524;5.080;2023-05-10T11:21:19;4.72;;;3.10;;
66342;SDS011;53144;51.524;5.080;2023-05-10T11:26:36;4.65;;;3.15;;
66342;SDS011;53144;51.524;5.080;2023-05-10T11:29:02;5.40;;;2.88;;
66342;SDS011;53144;51.524;5.080;2023-05-10T11:31:29;4.65;;;2.70;;
66342;SDS011;53144;51.524;5.080;2023-05-10T11:33:58;2.88;;;2.50;;
66342;SDS011;53144;51.524;5.080;2023-05-10T11:36:27;5.45;;;2.75;;
66342;SDS011;53144;51.524;5.080;2023-05-10T11:38:54;3.88;;;2.58;;
66342;SDS011;53144;51.524;5.080;2023-05-10T11:41:23;4.32;;;2.72;;
66342;SDS011;53144;51.524;5.080;2023-05-10T11:43:50;4.40;;;2.70;;
66342;SDS011;53144;51.524;5.080;2023-05-10T11:46:18;3.75;;;2.70;;
66342;SDS011;53144;51.524;5.080;2023-05-10T11:48:45;6.18;;;2.97;;
66342;SDS011;53144;51.524;5.080;2023-05-10T11:51:12;3.28;;;2.30;;
66342;SDS011;53144;51.524;5.080;2023-05-10T11:53:37;3.60;;;2.40;;
66342;SDS011;53144;51.524;5.080;2023-05-10T11:56:09;4.90;;;3.10;;
66342;SDS011;53144;51.524;5.080;2023-05-10T11:58:39;7.88;;;2.53;;
66342;SDS011;53144;51.524;5.080;2023-05-10T12:01:06;5.03;;;2.85;;
66342;SDS011;53144;51.524;5.080;2023-05-10T12:03:32;3.95;;;2.42;;
66342;SDS011;53144;51.524;5.080;2023-05-10T12:05:59;3.50;;;2.63;;
66342;SDS011;53144;51.524;5.080;2023-05-10T12:08:26;3.05;;;2.45;;
66342;SDS011;53144;51.524;5.080;2023-05-10T12:10:53;3.28;;;2.22;;
66342;SDS011;53144;51.524;5.080;2023-05-10T12:13:28;4.60;;;2.57;;
66342;SDS011;53144;51.524;5.080;2023-05-10T12:15:54;3.97;;;2.50;;
66342;SDS011;53144;51.524;5.080;2023-05-10T12:18:23;3.55;;;2.42;;
66342;SDS011;53144;51.524;5.080;2023-05-10T12:20:51;3.67;;;2.60;;
66342;SDS011;53144;51.524;5.080;2023-05-10T12:23:18;4.32;;;2.28;;
66342;SDS011;53144;51.524;5.080;2023-05-10T12:25:45;5.38;;;2.47;;
66342;SDS011;53144;51.524;5.080;2023-05-10T12:28:11;3.20;;;2.45;;
66342;SDS011;53144;51.524;5.080;2023-05-10T12:30:36;4.95;;;2.40;;
66342;SDS011;53144;51.524;5.080;2023-05-10T12:35:48;3.40;;;2.37;;
66342;SDS011;53144;51.524;5.080;2023-05-10T12:40:59;5.25;;;2.25;;
66342;SDS011;53144;51.524;5.080;2023-05-10T12:43:27;2.88;;;1.85;;
66342;SDS011;53144;51.524;5.080;2023-05-10T12:45:52;3.15;;;1.70;;
66342;SDS011;53144;51.524;5.080;2023-05-10T12:48:18;4.35;;;1.90;;
66342;SDS011;53144;51.524;5.080;2023-05-10T12:50:43;4.78;;;1.90;;
66342;SDS011;53144;51.524;5.080;2023-05-10T12:53:09;3.38;;;1.58;;
66342;SDS011;53144;51.524;5.080;2023-05-10T12:55:35;2.35;;;1.80;;
66342;SDS011;53144;51.524;5.080;2023-05-10T12:58:00;2.67;;;2.00;;
66342;SDS011;53144;51.524;5.080;2023-05-10T13:00:25;2.67;;;1.90;;
66342;SDS011;53144;51.524;5.080;2023-05-10T13:02:51;3.85;;;2.15;;
66342;SDS011;53144;51.524;5.080;2023-05-10T13:05:17;3.70;;;2.50;;
66342;SDS011;53144;51.524;5.080;2023-05-10T13:07:42;13.70;;;7.82;;
66342;SDS011;53144;51.524;5.080;2023-05-10T13:10:09;18.30;;;13.43;;
66342;SDS011;53144;51.524;5.080;2023-05-10T13:12:35;26.67;;;14.63;;
66342;SDS011;53144;51.524;5.080;2023-05-10T13:15:00;20.92;;;13.63;;
66342;SDS011;53144;51.524;5.080;2023-05-10T13:17:26;20.65;;;14.43;;
66342;SDS011;53144;51.524;5.080;2023-05-10T13:19:51;17.35;;;13.95;;
66342;SDS011;53144;51.524;5.080;2023-05-10T13:22:17;21.38;;;14.55;;
66342;SDS011;53144;51.524;5.080;2023-05-10T13:24:42;22.35;;;14.52;;
66342;SDS011;53144;51.524;5.080;2023-05-10T13:27:08;18.77;;;14.20;;
66342;SDS011;53144;51.524;5.080;2023-05-10T13:29:33;21.45;;;14.70;;
66342;SDS011;53144;51.524;5.080;2023-05-10T13:31:58;9.43;;;6.28;;
66342;SDS011;53144;51.524;5.080;2023-05-10T13:34:24;7.68;;;5.07;;
66342;SDS011;53144;51.524;5.080;2023-05-10T13:36:50;9.07;;;5.90;;
66342;SDS011;53144;51.524;5.080;2023-05-10T13:39:15;8.52;;;5.10;;
66342;SDS011;53144;51.524;5.080;2023-05-10T13:41:41;10.13;;;5.00;;
66342;SDS011;53144;51.524;5.080;2023-05-10T13:44:07;8.48;;;5.22;;
66342;SDS011;53144;51.524;5.080;2023-05-10T13:46:32;10.73;;;5.30;;
66342;SDS011;53144;51.524;5.080;2023-05-10T13:48:58;10.52;;;7.88;;
66342;SDS011;53144;51.524;5.080;2023-05-10T13:51:23;10.73;;;7.75;;
66342;SDS011;53144;51.524;5.080;2023-05-10T13:53:48;11.73;;;8.77;;
66342;SDS011;53144;51.524;5.080;2023-05-10T13:56:14;10.77;;;8.07;;
66342;SDS011;53144;51.524;5.080;2023-05-10T13:58:40;12.50;;;7.82;;
66342;SDS011;53144;51.524;5.080;2023-05-10T14:01:06;12.13;;;9.25;;
66342;SDS011;53144;51.524;5.080;2023-05-10T14:03:31;9.70;;;7.88;;
66342;SDS011;53144;51.524;5.080;2023-05-10T14:05:57;11.07;;;8.38;;
66342;SDS011;53144;51.524;5.080;2023-05-10T14:08:23;12.70;;;8.48;;
66342;SDS011;53144;51.524;5.080;2023-05-10T14:10:48;10.45;;;9.32;;
66342;SDS011;53144;51.524;5.080;2023-05-10T14:13:15;11.90;;;8.38;;
66342;SDS011;53144;51.524;5.080;2023-05-10T14:15:40;11.25;;;8.73;;
66342;SDS011;53144;51.524;5.080;2023-05-10T14:18:06;10.93;;;8.45;;
66342;SDS011;53144;51.524;5.080;2023-05-10T14:20:31;11.07;;;8.48;;
66342;SDS011;53144;51.524;5.080;2023-05-10T14:22:58;11.30;;;9.02;;
66342;SDS011;53144;51.524;5.080;2023-05-10T14:25:24;11.25;;;9.20;;
66342;SDS011;53144;51.524;5.080;2023-05-10T14:27:50;12.02;;;8.50;;
66342;SDS011;53144;51.524;5.080;2023-05-10T14:30:15;11.55;;;7.15;;
66342;SDS011;53144;51.524;5.080;2023-05-10T14:32:41;8.65;;;6.53;;
66342;SDS011;53144;51.524;5.080;2023-05-10T14:35:06;8.38;;;6.68;;
66342;SDS011;53144;51.524;5.080;2023-05-10T14:37:32;8.05;;;6.30;;
66342;SDS011;53144;51.524;5.080;2023-05-10T14:39:58;7.75;;;5.93;;
66342;SDS011;53144;51.524;5.080;2023-05-10T14:42:23;6.38;;;4.72;;
66342;SDS011;53144;51.524;5.080;2023-05-10T14:44:48;5.15;;;4.50;;
66342;SDS011;53144;51.524;5.080;2023-05-10T14:47:14;6.57;;;4.60;;
66342;SDS011;53144;51.524;5.080;2023-05-10T14:49:39;6.75;;;4.72;;
66342;SDS011;53144;51.524;5.080;2023-05-10T14:52:05;6.07;;;4.45;;
66342;SDS011;53144;51.524;5.080;2023-05-10T14:54:31;9.00;;;5.00;;
66342;SDS011;53144;51.524;5.080;2023-05-10T14:56:58;5.63;;;4.93;;
66342;SDS011;53144;51.524;5.080;2023-05-10T14:59:24;6.43;;;4.60;;
66342;SDS011;53144;51.524;5.080;2023-05-10T15:01:49;5.40;;;3.88;;
66342;SDS011;53144;51.524;5.080;2023-05-10T15:04:14;6.32;;;4.25;;
66342;SDS011;53144;51.524;5.080;2023-05-10T15:06:41;5.90;;;3.85;;
66342;SDS011;53144;51.524;5.080;2023-05-10T15:09:06;5.32;;;4.00;;
66342;SDS011;53144;51.524;5.080;2023-05-10T15:11:32;7.65;;;3.78;;
66342;SDS011;53144;51.524;5.080;2023-05-10T15:13:57;6.57;;;3.95;;
66342;SDS011;53144;51.524;5.080;2023-05-10T15:16:23;6.35;;;3.97;;
66342;SDS011;53144;51.524;5.080;2023-05-10T15:18:48;7.38;;;4.50;;
66342;SDS011;53144;51.524;5.080;2023-05-10T15:21:14;5.80;;;4.15;;
66342;SDS011;53144;51.524;5.080;2023-05-10T15:23:39;6.85;;;4.03;;
66342;SDS011;53144;51.524;5.080;2023-05-10T15:26:04;6.85;;;4.28;;
66342;SDS011;53144;51.524;5.080;2023-05-10T15:28:30;6.13;;;4.85;;
66342;SDS011;53144;51.524;5.080;2023-05-10T15:30:55;7.78;;;5.00;;
66342;SDS011;53144;51.524;5.080;2023-05-10T15:33:21;6.20;;;4.93;;
66342;SDS011;53144;51.524;5.080;2023-05-10T15:35:47;6.55;;;4.82;;
66342;SDS011;53144;51.524;5.080;2023-05-10T15:38:12;7.28;;;6.03;;
66342;SDS011;53144;51.524;5.080;2023-05-10T15:40:37;9.32;;;6.68;;
66342;SDS011;53144;51.524;5.080;2023-05-10T15:43:03;9.77;;;6.85;;
66342;SDS011;53144;51.524;5.080;2023-05-10T15:45:30;9.57;;;6.10;;
66342;SDS011;53144;51.524;5.080;2023-05-10T15:47:55;7.53;;;6.00;;
66342;SDS011;53144;51.524;5.080;2023-05-10T15:50:21;9.10;;;6.45;;
66342;SDS011;53144;51.524;5.080;2023-05-10T15:52:46;8.25;;;6.15;;
66342;SDS011;53144;51.524;5.080;2023-05-10T15:55:12;9.73;;;5.30;;
66342;SDS011;53144;51.524;5.080;2023-05-10T15:57:40;6.78;;;4.68;;
66342;SDS011;53144;51.524;5.080;2023-05-10T16:00:07;8.77;;;5.07;;
66342;SDS011;53144;51.524;5.080;2023-05-10T16:02:34;9.60;;;6.55;;
66342;SDS011;53144;51.524;5.080;2023-05-10T16:04:59;13.77;;;7.38;;
66342;SDS011;53144;51.524;5.080;2023-05-10T16:07:25;9.90;;;6.82;;
66342;SDS011;53144;51.524;5.080;2023-05-10T16:09:51;7.65;;;5.82;;
66342;SDS011;53144;51.524;5.080;2023-05-10T16:12:16;9.50;;;6.55;;
66342;SDS011;53144;51.524;5.080;2023-05-10T16:17:07;9.35;;;6.18;;
66342;SDS011;53144;51.524;5.080;2023-05-10T16:19:32;7.55;;;4.97;;
66342;SDS011;53144;51.524;5.080;2023-05-10T16:21:58;6.47;;;4.88;;
66342;SDS011;53144;51.524;5.080;2023-05-10T16:24:23;10.18;;;5.65;;
66342;SDS011;53144;51.524;5.080;2023-05-10T16:26:50;7.47;;;5.32;;
66342;SDS011;53144;51.524;5.080;2023-05-10T16:29:15;8.43;;;5.30;;
66342;SDS011;53144;51.524;5.080;2023-05-10T16:31:41;7.40;;;5.60;;
66342;SDS011;53144;51.524;5.080;2023-05-10T16:34:06;5.95;;;4.75;;
66342;SDS011;53144;51.524;5.080;2023-05-10T16:36:32;8.18;;;5.00;;
66342;SDS011;53144;51.524;5.080;2023-05-10T16:38:57;5.55;;;4.00;;
66342;SDS011;53144;51.524;5.080;2023-05-10T16:41:23;6.50;;;3.90;;